Salmon Creek, California
Current Conditions -  °F | °C
As of 11:53 AM on Thursday 29 Jan 2015 (Local Time) from KSTS Reporting Station
Few Clouds Few Clouds  
Wind Chill: 16°   Ceiling: Unl
Heat Index: 16°   Visibility: 10mi
Dew Point:   Wind: 0mph
Humidity: 58%   Direction: NA
Pressure: 30.13"   Gusts: NA
Location:  38.3575°N, 123.043°W
Report Text: KSTS 291953Z 00000KT 10SM FEW200 16/08 A3013 RMK AO2 SLP196 T01610078
Loading
Personal Weather Stations






























Interactive Weather Map New forecast layout! Learn more

10-Day Weather Forecast

Advertisements
Track Severe Weather on mobile